createdAt,value
2024-01-25T00:00:20.936Z,9.21
2024-01-25T00:02:23.740Z,9.10
2024-01-25T00:04:26.597Z,9.20
2024-01-25T00:06:31.031Z,9.29
2024-01-25T00:08:33.918Z,9.20
2024-01-25T00:10:36.726Z,9.30
2024-01-25T00:12:39.644Z,9.29
2024-01-25T00:14:42.432Z,9.19
2024-01-25T00:16:45.268Z,9.24
2024-01-25T00:18:48.029Z,9.31
2024-01-25T00:20:51.053Z,9.32
2024-01-25T00:22:55.244Z,9.32
2024-01-25T00:24:57.110Z,9.31
2024-01-25T00:26:59.926Z,9.30
2024-01-25T00:29:02.627Z,9.28
2024-01-25T00:31:05.901Z,9.32
2024-01-25T00:33:08.961Z,9.36
2024-01-25T00:35:14.557Z,9.40
2024-01-25T00:37:18.294Z,9.40
2024-01-25T00:39:23.327Z,9.40
2024-01-25T00:41:26.417Z,9.39
2024-01-25T00:43:29.859Z,9.30
2024-01-25T00:45:33.296Z,9.44
2024-01-25T00:47:35.708Z,9.41
2024-01-25T00:49:39.030Z,9.37
2024-01-25T00:51:48.711Z,9.44
2024-01-25T00:53:51.974Z,9.47
2024-01-25T00:55:56.605Z,9.37
2024-01-25T00:58:01.099Z,9.34
2024-01-25T01:00:05.737Z,9.32
2024-01-25T01:02:13.231Z,9.35
2024-01-25T01:04:17.050Z,9.26
2024-01-25T01:06:20.904Z,9.31
2024-01-25T01:08:24.280Z,9.32
2024-01-25T01:10:27.086Z,9.23
2024-01-25T01:12:33.403Z,9.26
2024-01-25T01:14:36.602Z,9.38
2024-01-25T01:16:39.337Z,9.41
2024-01-25T01:18:42.248Z,9.44
2024-01-25T01:20:45.066Z,9.29
2024-01-25T01:22:48.025Z,9.30
2024-01-25T01:24:51.316Z,9.27
2024-01-25T01:26:54.057Z,9.32
2024-01-25T01:28:58.294Z,9.31
2024-01-25T01:31:01.160Z,9.39
2024-01-25T01:33:04.109Z,9.36
2024-01-25T01:35:08.074Z,9.29
2024-01-25T01:37:10.948Z,9.32
2024-01-25T01:39:13.894Z,9.23
2024-01-25T01:41:16.845Z,9.28
2024-01-25T01:43:24.322Z,9.38
2024-01-25T01:45:28.901Z,9.26
2024-01-25T01:47:31.847Z,9.34
2024-01-25T01:49:34.999Z,9.22
2024-01-25T01:51:38.126Z,9.14
2024-01-25T01:53:42.058Z,9.17
2024-01-25T01:55:44.782Z,9.22
2024-01-25T01:57:49.241Z,9.24
2024-01-25T01:59:52.594Z,9.24
2024-01-25T02:01:56.936Z,9.20
2024-01-25T02:03:59.832Z,9.14
2024-01-25T02:06:03.979Z,9.19
2024-01-25T02:08:07.968Z,9.12
2024-01-25T02:10:10.434Z,9.15
2024-01-25T02:12:13.330Z,9.20
2024-01-25T02:14:15.100Z,9.16
2024-01-25T02:16:19.051Z,9.04
2024-01-25T02:18:23.570Z,9.22
2024-01-25T02:20:27.251Z,9.09
2024-01-25T02:22:31.370Z,9.15
2024-01-25T02:24:34.197Z,9.14
2024-01-25T02:26:37.348Z,9.20
2024-01-25T02:28:40.552Z,9.15
2024-01-25T02:30:42.490Z,9.12
2024-01-25T02:32:45.370Z,9.09
2024-01-25T02:34:48.235Z,9.16
2024-01-25T02:36:50.118Z,9.16
2024-01-25T02:38:55.090Z,9.07
2024-01-25T02:40:57.812Z,9.09
2024-01-25T02:43:00.564Z,8.98
2024-01-25T02:45:03.222Z,8.94
2024-01-25T02:47:05.853Z,8.95
2024-01-25T02:49:08.806Z,8.95
2024-01-25T02:51:11.709Z,9.02
2024-01-25T02:53:14.425Z,8.93
2024-01-25T02:55:20.871Z,8.96
2024-01-25T02:57:23.960Z,8.92
2024-01-25T02:59:26.645Z,8.86
2024-01-25T03:01:30.168Z,8.86
2024-01-25T03:03:31.991Z,8.85
2024-01-25T03:05:35.878Z,8.81
2024-01-25T03:07:37.708Z,8.77
2024-01-25T03:09:40.493Z,8.76
2024-01-25T03:11:44.595Z,8.89
2024-01-25T03:13:47.615Z,8.94
2024-01-25T03:15:49.424Z,8.75
2024-01-25T03:17:52.289Z,8.78
2024-01-25T03:19:54.247Z,8.78
2024-01-25T03:21:57.242Z,8.83
2024-01-25T03:23:59.043Z,8.71
2024-01-25T03:26:03.968Z,8.81
2024-01-25T03:28:07.746Z,8.72
2024-01-25T03:30:12.181Z,8.75
2024-01-25T03:32:14.960Z,8.70
2024-01-25T03:34:17.896Z,8.77
2024-01-25T03:36:20.792Z,8.72
2024-01-25T03:38:23.563Z,8.73
2024-01-25T03:40:26.428Z,8.65
2024-01-25T03:42:28.290Z,8.69
2024-01-25T03:44:32.555Z,8.80
2024-01-25T03:46:35.310Z,8.70
2024-01-25T03:48:38.061Z,8.61
2024-01-25T03:50:40.033Z,8.61
2024-01-25T03:52:42.934Z,8.63
2024-01-25T03:54:45.612Z,8.52
2024-01-25T03:56:48.393Z,8.77
2024-01-25T03:58:51.113Z,8.56
2024-01-25T04:00:55.287Z,8.52
2024-01-25T04:02:57.176Z,8.62
2024-01-25T04:05:00.000Z,8.61
2024-01-25T04:07:02.788Z,8.67
2024-01-25T04:09:04.828Z,8.67
2024-01-25T04:11:09.104Z,8.60
2024-01-25T04:13:11.827Z,8.69
2024-01-25T04:15:14.655Z,8.46
2024-01-25T04:17:18.682Z,8.53
2024-01-25T04:19:21.671Z,8.57
2024-01-25T04:21:23.677Z,8.54
2024-01-25T04:23:26.372Z,8.50
2024-01-25T04:25:30.152Z,8.53
2024-01-25T04:27:34.001Z,8.53
2024-01-25T04:29:36.913Z,8.50
2024-01-25T04:31:44.965Z,8.64
2024-01-25T04:33:49.590Z,8.63
2024-01-25T04:35:52.398Z,8.42
2024-01-25T04:37:55.111Z,8.54
2024-01-25T04:39:58.061Z,8.46
2024-01-25T04:42:00.759Z,8.38
2024-01-25T04:44:04.019Z,8.31
2024-01-25T04:46:06.892Z,8.37
2024-01-25T04:48:09.922Z,8.40
2024-01-25T04:50:14.246Z,8.47
2024-01-25T04:52:17.467Z,8.30
2024-01-25T04:54:20.232Z,8.25
2024-01-25T04:56:22.897Z,8.28
2024-01-25T04:58:26.284Z,8.26
2024-01-25T05:00:28.969Z,8.40
2024-01-25T05:02:31.665Z,8.46
2024-01-25T05:04:35.886Z,8.36
2024-01-25T05:06:40.300Z,8.37
2024-01-25T05:08:44.238Z,8.39
2024-01-25T05:10:47.011Z,8.37
2024-01-25T05:12:48.747Z,8.37
2024-01-25T05:14:51.630Z,8.30
2024-01-25T05:16:54.426Z,8.29
2024-01-25T05:18:57.263Z,8.08
2024-01-25T05:21:00.005Z,8.15
2024-01-25T05:23:04.423Z,8.00
2024-01-25T05:25:07.589Z,8.07
2024-01-25T05:27:10.430Z,8.02
2024-01-25T05:29:12.315Z,7.90
2024-01-25T05:31:15.014Z,7.87
2024-01-25T05:33:17.817Z,7.76
2024-01-25T05:35:20.660Z,7.83
2024-01-25T05:37:22.487Z,7.80
2024-01-25T05:39:26.528Z,7.78
2024-01-25T05:41:29.550Z,7.71
2024-01-25T05:43:31.424Z,7.66
2024-01-25T05:45:35.003Z,7.54
2024-01-25T05:47:38.239Z,7.74
2024-01-25T05:49:42.615Z,7.73
2024-01-25T05:51:45.506Z,7.63
2024-01-25T05:53:48.279Z,7.55
2024-01-25T05:55:52.296Z,7.49
2024-01-25T05:57:55.046Z,7.35
2024-01-25T05:59:56.865Z,7.41
2024-01-25T06:01:59.684Z,7.41
2024-01-25T06:04:02.544Z,7.34
2024-01-25T06:06:05.583Z,7.31
2024-01-25T06:08:08.856Z,7.32
2024-01-25T06:10:12.328Z,7.35
2024-01-25T06:12:16.563Z,7.29
2024-01-25T06:14:18.336Z,7.29
2024-01-25T06:16:21.205Z,7.24
2024-01-25T06:18:24.699Z,7.16
2024-01-25T06:20:27.620Z,7.11
2024-01-25T06:22:30.388Z,7.14
2024-01-25T06:24:33.281Z,7.09
2024-01-25T06:26:36.051Z,7.07
2024-01-25T06:28:41.768Z,7.10
2024-01-25T06:30:44.650Z,7.17
2024-01-25T06:32:47.609Z,7.04
2024-01-25T06:34:50.537Z,7.17
2024-01-25T06:36:54.248Z,7.09
2024-01-25T06:38:56.992Z,7.04
2024-01-25T06:40:59.826Z,7.04
2024-01-25T06:43:03.024Z,6.99
2024-01-25T06:45:07.883Z,7.03
2024-01-25T06:47:09.555Z,7.01
2024-01-25T06:49:12.546Z,6.94
2024-01-25T06:51:15.878Z,6.97
2024-01-25T06:53:18.524Z,7.01
2024-01-25T06:55:21.435Z,7.00
2024-01-25T06:57:25.334Z,6.96
2024-01-25T06:59:28.047Z,6.85
2024-01-25T07:01:31.911Z,6.94
2024-01-25T07:03:35.889Z,6.86
2024-01-25T07:05:39.405Z,6.92
2024-01-25T07:07:42.238Z,6.89
2024-01-25T07:09:44.132Z,6.83
2024-01-25T07:11:47.137Z,6.87
2024-01-25T07:13:50.051Z,6.85
2024-01-25T07:15:52.791Z,6.85
2024-01-25T07:17:56.871Z,6.73
2024-01-25T07:19:59.931Z,6.78
2024-01-25T07:22:02.743Z,6.80
2024-01-25T07:24:06.269Z,6.82
2024-01-25T07:26:09.021Z,6.68
2024-01-25T07:28:11.755Z,6.73
2024-01-25T07:30:14.671Z,6.72
2024-01-25T07:32:18.103Z,6.82
2024-01-25T07:34:22.249Z,6.81
2024-01-25T07:36:25.873Z,6.75
2024-01-25T07:38:28.756Z,6.78
2024-01-25T07:40:31.469Z,6.75
2024-01-25T07:42:34.664Z,6.78
2024-01-25T07:44:36.533Z,6.86
2024-01-25T07:46:39.312Z,6.88
2024-01-25T07:48:42.656Z,7.00
2024-01-25T07:50:46.959Z,6.92
2024-01-25T07:52:51.050Z,7.05
2024-01-25T07:54:54.660Z,7.15
2024-01-25T07:56:57.702Z,7.19
2024-01-25T07:59:01.254Z,7.30
2024-01-25T08:01:06.299Z,7.48
2024-01-25T08:03:09.341Z,7.88
2024-01-25T08:05:11.895Z,8.00
2024-01-25T08:07:16.170Z,7.92
2024-01-25T08:09:19.695Z,7.75
2024-01-25T08:11:22.317Z,7.78
2024-01-25T08:13:25.081Z,7.97
2024-01-25T08:15:27.867Z,8.39
2024-01-25T08:17:30.745Z,8.40
2024-01-25T08:19:33.670Z,8.57
2024-01-25T08:21:37.612Z,8.98
2024-01-25T08:23:41.981Z,9.24
2024-01-25T08:25:44.736Z,9.19
2024-01-25T08:27:47.590Z,9.32
2024-01-25T08:29:50.347Z,9.26
2024-01-25T08:31:52.093Z,10.03
2024-01-25T08:33:55.902Z,10.22
2024-01-25T08:35:59.293Z,10.01
2024-01-25T08:38:02.033Z,9.99
2024-01-25T08:40:08.072Z,9.89
2024-01-25T08:42:11.650Z,9.66
2024-01-25T08:44:14.457Z,10.31
2024-01-25T08:46:17.929Z,10.40
2024-01-25T08:48:21.323Z,10.73
2024-01-25T08:50:26.603Z,10.66
2024-01-25T08:52:30.306Z,11.33
2024-01-25T08:54:33.223Z,11.22
2024-01-25T08:56:37.350Z,10.91
2024-01-25T08:58:40.214Z,10.94
2024-01-25T09:00:43.029Z,11.05
2024-01-25T09:02:45.987Z,11.56
2024-01-25T09:04:47.866Z,11.57
2024-01-25T09:06:50.827Z,11.59
2024-01-25T09:08:53.546Z,11.32
2024-01-25T09:10:55.386Z,12.42
2024-01-25T09:12:59.626Z,12.42
2024-01-25T09:15:02.751Z,12.07
2024-01-25T09:17:06.105Z,12.68
2024-01-25T09:19:09.162Z,12.14
2024-01-25T09:21:12.033Z,10.68
2024-01-25T09:23:14.834Z,11.85
2024-01-25T09:25:17.778Z,13.11
2024-01-25T09:27:20.522Z,13.02
2024-01-25T09:29:25.025Z,11.96
2024-01-25T09:31:27.866Z,11.05
2024-01-25T09:33:31.353Z,11.37
2024-01-25T09:35:34.525Z,12.42
2024-01-25T09:37:37.430Z,12.11
2024-01-25T09:39:40.263Z,11.06
2024-01-25T09:41:45.085Z,12.58
2024-01-25T09:43:48.748Z,11.99
2024-01-25T09:45:56.394Z,11.58
2024-01-25T09:47:59.648Z,10.49
2024-01-25T09:50:02.851Z,10.37
2024-01-25T09:52:06.243Z,10.69
2024-01-25T09:54:11.061Z,10.54
2024-01-25T09:56:15.244Z,10.09
2024-01-25T09:58:17.238Z,9.42
2024-01-25T10:00:21.273Z,9.78
2024-01-25T10:02:25.704Z,9.35
2024-01-25T10:04:27.738Z,9.98
2024-01-25T10:06:30.650Z,9.30
2024-01-25T10:08:32.523Z,9.90
2024-01-25T10:10:35.685Z,9.78
2024-01-25T10:12:39.517Z,9.91
2024-01-25T10:14:42.305Z,10.23
2024-01-25T10:16:45.214Z,10.27
2024-01-25T10:18:50.314Z,10.70
2024-01-25T10:20:55.522Z,10.09
2024-01-25T10:23:00.115Z,10.05
2024-01-25T10:25:04.098Z,10.10
2024-01-25T10:27:07.524Z,9.88
2024-01-25T10:29:11.540Z,10.18
2024-01-25T10:31:14.596Z,10.14
2024-01-25T10:33:18.515Z,10.00
2024-01-25T10:35:24.792Z,10.59
2024-01-25T10:37:30.562Z,10.40
2024-01-25T10:39:34.003Z,10.26
2024-01-25T10:41:36.982Z,10.50
2024-01-25T10:43:39.966Z,10.47
2024-01-25T10:45:43.508Z,10.66
2024-01-25T10:47:50.909Z,10.61
2024-01-25T10:49:54.973Z,10.90
2024-01-25T10:51:59.606Z,11.19
2024-01-25T10:54:03.176Z,11.07
2024-01-25T10:56:07.237Z,11.15
2024-01-25T10:58:10.531Z,11.17
2024-01-25T11:00:15.680Z,11.21
2024-01-25T11:02:20.794Z,10.76
2024-01-25T11:04:23.724Z,11.46
2024-01-25T11:06:28.491Z,11.64
2024-01-25T11:08:32.747Z,11.27
2024-01-25T11:10:39.159Z,11.55
2024-01-25T11:12:49.479Z,11.15
2024-01-25T11:14:56.537Z,11.63
2024-01-25T11:16:59.403Z,11.47
2024-01-25T11:19:07.382Z,10.92
2024-01-25T11:21:10.301Z,11.19
2024-01-25T11:23:17.685Z,11.07
2024-01-25T11:25:24.716Z,11.04
2024-01-25T11:27:28.017Z,10.87
2024-01-25T11:29:30.950Z,10.85
2024-01-25T11:31:33.963Z,10.55
2024-01-25T11:33:37.231Z,10.57
2024-01-25T11:35:40.233Z,10.47
2024-01-25T11:37:42.182Z,10.37
2024-01-25T11:39:45.906Z,10.84
2024-01-25T11:41:52.804Z,10.74
2024-01-25T11:43:54.710Z,10.41
2024-01-25T11:45:57.902Z,10.94
2024-01-25T11:47:59.694Z,11.07
2024-01-25T11:50:02.484Z,10.84
2024-01-25T11:52:05.336Z,10.78
2024-01-25T11:54:08.980Z,11.19
2024-01-25T11:56:17.863Z,10.94
2024-01-25T11:58:22.116Z,11.24
2024-01-25T12:00:25.141Z,11.57
2024-01-25T12:02:28.971Z,11.24
2024-01-25T12:04:33.571Z,11.18
2024-01-25T12:06:39.388Z,10.66
2024-01-25T12:08:42.196Z,11.06
2024-01-25T12:10:44.020Z,10.97
2024-01-25T12:12:46.816Z,10.77
2024-01-25T12:14:49.941Z,11.22
2024-01-25T12:16:52.948Z,11.27
2024-01-25T12:18:56.356Z,10.79
2024-01-25T12:21:00.050Z,10.72
2024-01-25T12:23:02.898Z,10.90
2024-01-25T12:25:09.511Z,10.99
2024-01-25T12:27:12.172Z,10.78
2024-01-25T12:29:15.169Z,10.66
2024-01-25T12:31:19.642Z,10.66
2024-01-25T12:33:23.592Z,10.75
2024-01-25T12:35:26.781Z,10.80
2024-01-25T12:37:29.785Z,10.72
2024-01-25T12:39:34.051Z,10.88
2024-01-25T12:41:37.993Z,10.80
2024-01-25T12:43:40.809Z,10.55
2024-01-25T12:45:42.866Z,10.64
2024-01-25T12:47:47.257Z,10.80
2024-01-25T12:49:50.416Z,10.99
2024-01-25T12:51:53.781Z,10.91
2024-01-25T12:53:57.474Z,10.95
2024-01-25T12:56:00.506Z,10.84
2024-01-25T12:58:04.025Z,10.81
2024-01-25T13:00:10.508Z,10.79
2024-01-25T13:02:14.620Z,10.60
2024-01-25T13:04:18.910Z,10.69
2024-01-25T13:06:21.906Z,10.93
2024-01-25T13:08:24.785Z,11.00
2024-01-25T13:10:27.535Z,11.71
2024-01-25T13:12:30.405Z,12.41
2024-01-25T13:14:33.494Z,12.56
2024-01-25T13:16:36.183Z,11.80
2024-01-25T13:18:38.137Z,12.97
2024-01-25T13:20:42.350Z,12.25
2024-01-25T13:22:45.132Z,11.66
2024-01-25T13:24:47.945Z,11.69
2024-01-25T13:26:50.643Z,11.97
2024-01-25T13:28:54.257Z,12.52
2024-01-25T13:30:57.552Z,13.42
2024-01-25T13:33:00.463Z,12.89
2024-01-25T13:35:03.352Z,12.74
2024-01-25T13:37:07.624Z,12.28
2024-01-25T13:39:11.246Z,13.74
2024-01-25T13:41:14.017Z,13.97
2024-01-25T13:43:15.882Z,13.54
2024-01-25T13:45:18.823Z,12.31
2024-01-25T13:47:21.581Z,12.40
2024-01-25T13:49:23.601Z,12.99
2024-01-25T13:51:26.436Z,13.26
2024-01-25T13:53:30.570Z,12.50
2024-01-25T13:55:33.520Z,12.48
2024-01-25T13:57:36.240Z,12.40
2024-01-25T13:59:38.974Z,12.61
2024-01-25T14:01:41.886Z,12.21
2024-01-25T14:03:45.857Z,11.48
2024-01-25T14:05:48.155Z,12.12
2024-01-25T14:07:51.380Z,12.11
2024-01-25T14:09:56.570Z,11.60
2024-01-25T14:11:59.475Z,11.00
2024-01-25T14:14:01.852Z,11.37
2024-01-25T14:16:05.099Z,11.19
2024-01-25T14:18:08.228Z,10.62
2024-01-25T14:20:11.829Z,10.75
2024-01-25T14:22:22.734Z,10.80
2024-01-25T14:24:32.572Z,10.58
2024-01-25T14:26:37.282Z,11.04
2024-01-25T14:28:40.510Z,11.02
2024-01-25T14:30:44.091Z,11.07
2024-01-25T14:32:48.170Z,10.57
2024-01-25T14:34:50.567Z,11.00
2024-01-25T14:36:53.549Z,10.45
2024-01-25T14:38:56.384Z,10.23
2024-01-25T14:41:01.664Z,10.06
2024-01-25T14:43:07.010Z,10.24
2024-01-25T14:45:09.945Z,10.21
2024-01-25T14:47:13.175Z,10.07
2024-01-25T14:49:16.109Z,10.12
2024-01-25T14:51:19.032Z,10.05
2024-01-25T14:53:21.739Z,9.87
2024-01-25T14:55:25.418Z,9.87
2024-01-25T14:57:28.367Z,9.90
2024-01-25T14:59:32.406Z,9.85
2024-01-25T15:01:34.178Z,9.92
2024-01-25T15:03:37.069Z,9.84
2024-01-25T15:05:38.849Z,9.91
2024-01-25T15:07:43.729Z,9.89
2024-01-25T15:09:46.851Z,9.85
2024-01-25T15:11:49.893Z,9.92
2024-01-25T15:13:52.686Z,10.04
2024-01-25T15:15:57.074Z,9.93
2024-01-25T15:18:00.292Z,10.12
2024-01-25T15:20:02.183Z,9.71
2024-01-25T15:22:05.640Z,9.92
2024-01-25T15:24:08.526Z,9.74
2024-01-25T15:26:11.236Z,9.88
2024-01-25T15:28:16.223Z,9.97
2024-01-25T15:30:20.340Z,9.76
2024-01-25T15:32:24.492Z,9.73
2024-01-25T15:34:27.528Z,9.80
2024-01-25T15:36:30.600Z,9.61
2024-01-25T15:38:33.686Z,9.59
2024-01-25T15:40:36.594Z,9.45
2024-01-25T15:42:40.170Z,9.55
2024-01-25T15:44:43.019Z,9.55
2024-01-25T15:46:46.450Z,9.62
2024-01-25T15:48:52.373Z,9.51
2024-01-25T15:50:55.288Z,9.62
2024-01-25T15:52:58.097Z,9.42
2024-01-25T15:55:01.041Z,9.44
2024-01-25T15:57:09.263Z,9.41
2024-01-25T15:59:12.510Z,9.40
2024-01-25T16:01:14.407Z,9.41
2024-01-25T16:03:19.730Z,9.36
2024-01-25T16:05:24.703Z,9.41
2024-01-25T16:07:27.456Z,9.49
2024-01-25T16:09:30.255Z,9.48
2024-01-25T16:11:33.042Z,9.41
2024-01-25T16:13:35.757Z,9.34
2024-01-25T16:15:38.561Z,9.47
2024-01-25T16:17:41.387Z,9.37
2024-01-25T16:19:44.349Z,9.54
2024-01-25T16:21:48.479Z,9.43
2024-01-25T16:23:51.328Z,9.58
2024-01-25T16:25:55.405Z,9.42
2024-01-25T16:27:57.434Z,9.41
2024-01-25T16:30:00.330Z,9.77
2024-01-25T16:32:03.380Z,9.53
2024-01-25T16:34:08.827Z,9.44
2024-01-25T16:36:11.995Z,9.23
2024-01-25T16:38:16.302Z,9.25
2024-01-25T16:40:19.195Z,9.45
2024-01-25T16:42:21.938Z,9.32
2024-01-25T16:44:24.693Z,9.53
2024-01-25T16:46:27.456Z,9.49
2024-01-25T16:48:30.461Z,9.37
2024-01-25T16:50:33.206Z,9.29
2024-01-25T16:52:36.229Z,9.21
2024-01-25T16:54:40.504Z,9.21
2024-01-25T16:56:48.770Z,9.29
2024-01-25T16:58:51.531Z,9.20
2024-01-25T17:00:54.855Z,9.47
2024-01-25T17:02:57.882Z,9.30
2024-01-25T17:05:00.792Z,9.44
2024-01-25T17:07:03.804Z,9.31
2024-01-25T17:09:07.344Z,9.10
2024-01-25T17:11:11.452Z,9.03
2024-01-25T17:13:14.233Z,9.11
2024-01-25T17:15:17.446Z,9.09
2024-01-25T17:17:22.485Z,9.03
2024-01-25T17:19:25.407Z,9.14
2024-01-25T17:21:29.389Z,9.19
2024-01-25T17:23:32.086Z,9.14
2024-01-25T17:25:34.855Z,9.41
2024-01-25T17:27:39.529Z,9.21
2024-01-25T17:29:41.340Z,9.23
2024-01-25T17:31:44.147Z,9.25
2024-01-25T17:33:47.355Z,9.09
2024-01-25T17:35:50.234Z,9.08
2024-01-25T17:37:53.088Z,9.06
2024-01-25T17:39:55.993Z,9.15
2024-01-25T17:41:58.955Z,8.75
2024-01-25T17:44:03.116Z,8.56
2024-01-25T17:46:06.506Z,8.41
2024-01-25T17:48:09.583Z,8.38
2024-01-25T17:50:11.974Z,8.33
2024-01-25T17:52:14.842Z,8.38
2024-01-25T17:54:17.755Z,8.10
2024-01-25T17:56:20.913Z,8.15
2024-01-25T17:58:22.678Z,8.38
2024-01-25T18:00:26.798Z,8.34
2024-01-25T18:02:29.693Z,8.41
2024-01-25T18:04:32.421Z,8.35
2024-01-25T18:06:36.097Z,8.25
2024-01-25T18:08:40.094Z,8.43
2024-01-25T18:10:43.194Z,8.52
2024-01-25T18:12:45.027Z,8.37
2024-01-25T18:14:47.991Z,8.64
2024-01-25T18:16:52.201Z,8.52
2024-01-25T18:18:55.307Z,8.24
2024-01-25T18:20:58.317Z,8.38
2024-01-25T18:23:00.000Z,8.43
2024-01-25T18:25:03.153Z,8.27
2024-01-25T18:27:05.807Z,8.29
2024-01-25T18:29:08.774Z,8.41
2024-01-25T18:31:11.516Z,8.30
2024-01-25T18:33:15.828Z,8.25
2024-01-25T18:35:18.780Z,8.15
2024-01-25T18:37:21.492Z,8.15
2024-01-25T18:39:24.278Z,8.04
2024-01-25T18:41:26.975Z,8.32
2024-01-25T18:43:29.681Z,8.18
2024-01-25T18:45:31.600Z,8.12
2024-01-25T18:47:34.384Z,8.17
2024-01-25T18:49:37.796Z,8.09
2024-01-25T18:51:40.777Z,8.32
2024-01-25T18:53:44.120Z,8.40
2024-01-25T18:55:47.309Z,8.10
2024-01-25T18:57:50.666Z,8.24
2024-01-25T18:59:53.917Z,8.35
2024-01-25T19:01:58.145Z,8.27
2024-01-25T19:04:01.487Z,8.20
2024-01-25T19:06:07.059Z,8.12
2024-01-25T19:08:11.282Z,8.10
2024-01-25T19:10:14.065Z,8.06
2024-01-25T19:12:16.997Z,8.01
2024-01-25T19:14:20.199Z,8.12
2024-01-25T19:16:23.665Z,8.18
2024-01-25T19:18:29.454Z,8.12
2024-01-25T19:20:32.341Z,8.04
2024-01-25T19:22:36.453Z,8.14
2024-01-25T19:24:39.260Z,8.12
2024-01-25T19:26:42.016Z,8.23
2024-01-25T19:28:45.357Z,8.23
2024-01-25T19:30:48.150Z,8.22
2024-01-25T19:32:50.072Z,8.21
2024-01-25T19:34:53.028Z,8.11
2024-01-25T19:36:55.971Z,8.12
2024-01-25T19:39:00.088Z,8.15
2024-01-25T19:41:02.864Z,8.08
2024-01-25T19:43:05.557Z,8.13
2024-01-25T19:45:08.842Z,8.07
2024-01-25T19:47:12.186Z,8.17
2024-01-25T19:49:15.042Z,8.15
2024-01-25T19:51:17.893Z,8.09
2024-01-25T19:53:20.880Z,8.08
2024-01-25T19:55:25.145Z,8.09
2024-01-25T19:57:28.615Z,8.02
2024-01-25T19:59:31.002Z,8.13
2024-01-25T20:01:34.506Z,8.06
2024-01-25T20:03:37.927Z,8.09
2024-01-25T20:05:41.350Z,8.04
2024-01-25T20:07:44.587Z,8.05
2024-01-25T20:09:47.327Z,8.01
2024-01-25T20:11:51.422Z,8.02
2024-01-25T20:13:54.634Z,8.04
2024-01-25T20:15:57.737Z,8.10
2024-01-25T20:18:00.745Z,8.14
2024-01-25T20:20:04.282Z,8.14
2024-01-25T20:22:07.068Z,8.20
2024-01-25T20:24:10.118Z,8.15
2024-01-25T20:26:13.565Z,8.14
2024-01-25T20:28:17.690Z,8.15
2024-01-25T20:30:20.747Z,8.22
2024-01-25T20:32:23.835Z,8.24
2024-01-25T20:34:26.790Z,8.19
2024-01-25T20:36:29.666Z,8.16
2024-01-25T20:38:32.536Z,8.22
2024-01-25T20:40:34.323Z,8.14
2024-01-25T20:42:37.169Z,8.20
2024-01-25T20:44:41.250Z,8.20
2024-01-25T20:46:44.228Z,8.15
2024-01-25T20:48:47.151Z,8.10
2024-01-25T20:50:49.157Z,8.21
2024-01-25T20:52:51.898Z,8.19
2024-01-25T20:54:54.785Z,8.25
2024-01-25T20:56:57.520Z,8.21
2024-01-25T20:59:00.425Z,8.15
2024-01-25T21:01:05.588Z,8.12
2024-01-25T21:03:08.678Z,8.15
2024-01-25T21:05:12.641Z,8.15
2024-01-25T21:07:16.194Z,8.09
2024-01-25T21:09:19.661Z,8.08
2024-01-25T21:11:22.055Z,8.08
2024-01-25T21:13:25.555Z,8.14
2024-01-25T21:15:27.869Z,8.19
2024-01-25T21:17:31.971Z,8.20
2024-01-25T21:19:35.049Z,8.27
2024-01-25T21:21:37.852Z,8.13
2024-01-25T21:23:39.539Z,8.21
2024-01-25T21:25:42.385Z,8.16
2024-01-25T21:27:45.152Z,8.21
2024-01-25T21:29:50.649Z,8.25
2024-01-25T21:31:53.431Z,8.22
2024-01-25T21:33:58.170Z,8.27
2024-01-25T21:36:01.675Z,8.19
2024-01-25T21:38:04.728Z,8.21
2024-01-25T21:40:09.401Z,8.21
2024-01-25T21:42:12.164Z,8.23
2024-01-25T21:44:15.038Z,8.14
2024-01-25T21:46:17.887Z,8.12
2024-01-25T21:48:20.877Z,8.12
2024-01-25T21:50:25.406Z,8.19
2024-01-25T21:52:28.198Z,8.09
2024-01-25T21:54:30.936Z,8.16
2024-01-25T21:56:33.983Z,8.15
2024-01-25T21:58:36.941Z,8.13
2024-01-25T22:00:40.152Z,8.19
2024-01-25T22:02:43.402Z,8.15
2024-01-25T22:04:47.513Z,8.16
2024-01-25T22:06:51.654Z,8.11
2024-01-25T22:08:55.300Z,8.12
2024-01-25T22:10:57.566Z,8.18
2024-01-25T22:13:00.419Z,8.20
2024-01-25T22:15:03.254Z,8.15
2024-01-25T22:17:06.427Z,8.22
2024-01-25T22:19:09.693Z,8.19
2024-01-25T22:21:12.772Z,8.19
2024-01-25T22:23:16.796Z,8.24
2024-01-25T22:25:18.940Z,8.27
2024-01-25T22:27:22.903Z,8.30
2024-01-25T22:29:25.692Z,8.29
2024-01-25T22:31:28.478Z,8.31
2024-01-25T22:33:31.427Z,8.30
2024-01-25T22:35:34.294Z,8.35
2024-01-25T22:37:37.008Z,8.33
2024-01-25T22:39:41.254Z,8.27
2024-01-25T22:41:44.179Z,8.29
2024-01-25T22:43:46.899Z,8.29
2024-01-25T22:45:48.720Z,8.38
2024-01-25T22:47:51.585Z,8.27
2024-01-25T22:49:55.225Z,8.32
2024-01-25T22:51:58.177Z,8.23
2024-01-25T22:54:01.445Z,8.31
2024-01-25T22:56:07.105Z,8.36
2024-01-25T22:58:10.024Z,8.29
2024-01-25T23:00:22.098Z,8.19
2024-01-25T23:02:25.367Z,8.22
2024-01-25T23:04:27.302Z,8.20
2024-01-25T23:06:30.109Z,8.29
2024-01-25T23:08:33.204Z,8.29
2024-01-25T23:10:36.260Z,8.20
2024-01-25T23:12:40.387Z,8.25
2024-01-25T23:14:43.815Z,8.32
2024-01-25T23:16:46.621Z,8.17
2024-01-25T23:18:49.461Z,8.22
2024-01-25T23:20:52.340Z,8.31
2024-01-25T23:22:55.719Z,8.24
2024-01-25T23:24:58.558Z,8.29
2024-01-25T23:27:00.345Z,8.30
2024-01-25T23:29:05.112Z,8.29
2024-01-25T23:31:07.799Z,8.29
2024-01-25T23:33:09.618Z,8.18
2024-01-25T23:35:12.663Z,8.21
2024-01-25T23:37:15.623Z,8.20
2024-01-25T23:39:19.397Z,8.23
2024-01-25T23:41:22.297Z,8.27
2024-01-25T23:43:25.077Z,8.21
2024-01-25T23:45:29.194Z,8.24
2024-01-25T23:49:58.793Z,8.24
2024-01-25T23:52:01.748Z,8.27
2024-01-25T23:54:04.693Z,8.32
2024-01-25T23:56:08.094Z,8.39
2024-01-25T23:58:10.949Z,8.40
